createdAt,value
2019-02-23T00:00:58.861Z,83.52
2019-02-23T00:01:58.798Z,83.23
2019-02-23T00:02:58.738Z,83.33
2019-02-23T00:03:58.698Z,83.71
2019-02-23T00:04:58.619Z,83.62
2019-02-23T00:05:58.560Z,83.42
2019-02-23T00:06:58.501Z,83.33
2019-02-23T00:07:58.439Z,83.52
2019-02-23T00:08:58.379Z,83.52
2019-02-23T00:09:58.320Z,83.62
2019-02-23T00:10:58.261Z,83.42
2019-02-23T00:11:58.199Z,83.42
2019-02-23T00:12:58.141Z,83.33
2019-02-23T00:13:58.082Z,83.52
2019-02-23T00:14:58.021Z,83.52
2019-02-23T00:15:57.965Z,83.71
2019-02-23T00:16:57.900Z,83.90
2019-02-23T00:17:57.841Z,83.52
2019-02-23T00:18:57.783Z,83.52
2019-02-23T00:19:57.725Z,83.52
2019-02-23T00:20:57.661Z,83.81
2019-02-23T00:21:57.602Z,84.09
2019-02-23T00:22:57.540Z,83.90
2019-02-23T00:23:57.481Z,84.00
2019-02-23T00:24:57.422Z,84.00
2019-02-23T00:25:57.363Z,84.00
2019-02-23T00:26:57.304Z,83.71
2019-02-23T00:27:57.241Z,83.71
2019-02-23T00:28:57.182Z,83.81
2019-02-23T00:29:57.124Z,83.71
2019-02-23T00:30:57.062Z,83.90
2019-02-23T00:31:57.003Z,83.90
2019-02-23T00:32:56.944Z,83.71
2019-02-23T00:33:56.883Z,83.52
2019-02-23T00:34:56.822Z,83.52
2019-02-23T00:35:56.766Z,83.90
2019-02-23T00:36:56.703Z,83.71
2019-02-23T00:37:56.645Z,83.42
2019-02-23T00:38:56.583Z,83.33
2019-02-23T00:39:56.523Z,83.23
2019-02-23T00:40:56.463Z,83.39
2019-02-23T00:41:56.403Z,83.42
2019-02-23T00:42:56.343Z,82.95
2019-02-23T00:43:56.287Z,82.86
2019-02-23T00:44:56.227Z,83.04
2019-02-23T00:45:56.167Z,82.91
2019-02-23T00:46:56.104Z,82.95
2019-02-23T00:47:56.047Z,83.14
2019-02-23T00:48:55.987Z,83.19
2019-02-23T00:49:55.926Z,83.14
2019-02-23T00:50:55.863Z,83.29
2019-02-23T00:51:55.809Z,82.86
2019-02-23T00:52:55.744Z,83.00
2019-02-23T00:53:55.685Z,83.48
2019-02-23T00:54:55.625Z,83.42
2019-02-23T00:55:55.565Z,83.39
2019-02-23T00:56:55.505Z,82.81
2019-02-23T00:57:55.446Z,82.71
2019-02-23T00:58:55.384Z,82.86
2019-02-23T00:59:55.324Z,83.04
2019-02-23T01:00:55.265Z,83.10
2019-02-23T01:01:55.207Z,83.23
2019-02-23T01:02:55.146Z,83.04
2019-02-23T01:03:55.084Z,82.81
2019-02-23T01:04:55.027Z,82.62
2019-02-23T01:05:54.967Z,82.24
2019-02-23T01:06:54.911Z,83.00
2019-02-23T01:07:54.845Z,83.00
2019-02-23T01:08:54.785Z,82.57
2019-02-23T01:09:54.725Z,82.34
2019-02-23T01:10:58.061Z,82.38
2019-02-23T01:11:54.605Z,82.43
2019-02-23T01:12:54.545Z,82.34
2019-02-23T01:13:54.491Z,82.48
2019-02-23T01:14:54.428Z,82.43
2019-02-23T01:15:54.366Z,82.43
2019-02-23T01:16:54.306Z,82.24
2019-02-23T01:17:54.245Z,82.34
2019-02-23T01:18:54.189Z,82.15
2019-02-23T01:19:54.126Z,82.34
2019-02-23T01:20:54.066Z,82.81
2019-02-23T01:21:54.006Z,82.43
2019-02-23T01:22:53.945Z,82.34
2019-02-23T01:23:53.885Z,82.43
2019-02-23T01:24:53.826Z,82.43
2019-02-23T01:25:53.765Z,82.34
2019-02-23T01:26:53.704Z,82.15
2019-02-23T01:27:53.645Z,81.96
2019-02-23T01:28:53.586Z,82.53
2019-02-23T01:29:53.525Z,82.24
2019-02-23T01:30:53.465Z,82.24
2019-02-23T01:31:53.404Z,82.24
2019-02-23T01:32:53.345Z,82.34
2019-02-23T01:33:53.284Z,81.96
2019-02-23T01:34:53.224Z,82.15
2019-02-23T01:35:53.164Z,81.96
2019-02-23T01:36:53.106Z,82.34
2019-02-23T01:37:53.046Z,82.34
2019-02-23T01:38:52.985Z,82.34
2019-02-23T01:39:52.926Z,82.43
2019-02-23T01:40:52.865Z,82.24
2019-02-23T01:41:52.806Z,82.43
2019-02-23T01:42:52.749Z,82.24
2019-02-23T01:43:52.686Z,81.96
2019-02-23T01:44:52.626Z,82.34
2019-02-23T01:45:52.568Z,81.96
2019-02-23T01:46:52.504Z,82.34
2019-02-23T01:47:52.445Z,82.34
2019-02-23T01:48:52.388Z,82.43
2019-02-23T01:49:58.723Z,82.53
2019-02-23T01:50:52.267Z,82.34
2019-02-23T01:51:52.204Z,82.43
2019-02-23T01:52:52.147Z,82.24
2019-02-23T01:53:52.085Z,82.24
2019-02-23T01:54:52.023Z,82.24
2019-02-23T01:55:51.964Z,82.05
2019-02-23T01:56:51.905Z,82.24
2019-02-23T01:57:51.845Z,82.53
2019-02-23T01:58:51.784Z,81.86
2019-02-23T01:59:51.724Z,82.05
2019-02-23T02:00:51.665Z,81.96
2019-02-23T02:01:51.605Z,82.05
2019-02-23T02:02:51.546Z,82.05
2019-02-23T02:03:51.483Z,82.24
2019-02-23T02:04:51.429Z,82.15
2019-02-23T02:05:51.364Z,82.05
2019-02-23T02:06:51.305Z,82.24
2019-02-23T02:07:51.248Z,81.96
2019-02-23T02:08:51.184Z,82.24
2019-02-23T02:09:51.123Z,81.58
2019-02-23T02:10:51.062Z,81.58
2019-02-23T02:11:51.006Z,81.77
2019-02-23T02:12:50.947Z,81.77
2019-02-23T02:13:50.883Z,81.86
2019-02-23T02:14:50.824Z,81.96
2019-02-23T02:15:50.763Z,81.38
2019-02-23T02:16:50.703Z,81.20
2019-02-23T02:17:50.642Z,81.38
2019-02-23T02:18:50.582Z,81.77
2019-02-23T02:19:50.524Z,81.38
2019-02-23T02:20:50.462Z,81.48
2019-02-23T02:21:50.405Z,81.86
2019-02-23T02:22:50.341Z,81.58
2019-02-23T02:23:50.284Z,81.38
2019-02-23T02:24:50.222Z,81.77
2019-02-23T02:25:50.163Z,81.20
2019-02-23T02:26:50.102Z,81.20
2019-02-23T02:27:50.041Z,81.58
2019-02-23T02:28:49.980Z,81.48
2019-02-23T02:29:49.921Z,81.86
2019-02-23T02:30:49.861Z,81.29
2019-02-23T02:31:49.801Z,81.77
2019-02-23T02:32:49.743Z,81.86
2019-02-23T02:33:49.681Z,81.77
2019-02-23T02:34:49.625Z,81.86
2019-02-23T02:35:49.560Z,81.38
2019-02-23T02:36:49.499Z,81.77
2019-02-23T02:37:49.451Z,81.29
2019-02-23T02:38:49.383Z,81.58
2019-02-23T02:39:49.319Z,81.58
2019-02-23T02:40:49.265Z,81.58
2019-02-23T02:41:49.200Z,81.77
2019-02-23T02:42:49.139Z,81.48
2019-02-23T02:43:49.081Z,81.29
2019-02-23T02:44:49.021Z,81.77
2019-02-23T02:45:48.961Z,81.29
2019-02-23T02:46:48.899Z,81.38
2019-02-23T02:47:48.841Z,81.48
2019-02-23T02:48:48.777Z,81.48
2019-02-23T02:49:48.719Z,81.29
2019-02-23T02:50:48.657Z,81.58
2019-02-23T02:51:48.602Z,81.67
2019-02-23T02:52:48.537Z,81.58
2019-02-23T02:53:48.478Z,81.29
2019-02-23T02:54:48.418Z,81.20
2019-02-23T02:55:48.357Z,81.38
2019-02-23T02:56:48.296Z,81.01
2019-02-23T02:57:48.238Z,80.82
2019-02-23T02:58:48.175Z,81.10
2019-02-23T02:59:48.118Z,81.38
2019-02-23T03:00:48.055Z,81.10
2019-02-23T03:01:47.995Z,81.20
2019-02-23T03:02:47.935Z,81.67
2019-02-23T03:03:47.874Z,81.20
2019-02-23T03:04:47.815Z,81.48
2019-02-23T03:05:47.755Z,81.10
2019-02-23T03:06:47.693Z,80.72
2019-02-23T03:07:47.633Z,81.38
2019-02-23T03:08:47.574Z,80.72
2019-02-23T03:09:47.515Z,81.01
2019-02-23T03:10:47.456Z,80.91
2019-02-23T03:11:47.397Z,80.82
2019-02-23T03:12:47.340Z,80.72
2019-02-23T03:13:47.274Z,81.20
2019-02-23T03:14:47.214Z,80.82
2019-02-23T03:15:47.153Z,81.20
2019-02-23T03:16:47.094Z,81.20
2019-02-23T03:17:47.032Z,81.20
2019-02-23T03:18:46.970Z,81.20
2019-02-23T03:19:46.911Z,80.72
2019-02-23T03:20:46.853Z,80.53
2019-02-23T03:21:46.798Z,80.53
2019-02-23T03:22:46.729Z,80.63
2019-02-23T03:23:46.675Z,80.82
2019-02-23T03:24:46.612Z,80.24
2019-02-23T03:25:46.551Z,80.34
2019-02-23T03:26:46.491Z,80.44
2019-02-23T03:27:46.429Z,80.53
2019-02-23T03:28:46.373Z,80.44
2019-02-23T03:29:46.309Z,80.44
2019-02-23T03:30:46.256Z,80.53
2019-02-23T03:31:46.188Z,80.44
2019-02-23T03:32:46.128Z,80.24
2019-02-23T03:33:46.076Z,80.24
2019-02-23T03:34:46.007Z,79.86
2019-02-23T03:35:45.947Z,80.24
2019-02-23T03:36:45.887Z,80.24
2019-02-23T03:37:45.826Z,80.24
2019-02-23T03:38:45.768Z,80.34
2019-02-23T03:39:45.708Z,80.34
2019-02-23T03:40:45.647Z,80.24
2019-02-23T03:41:45.586Z,79.96
2019-02-23T03:42:45.528Z,79.86
2019-02-23T03:43:45.465Z,80.05
2019-02-23T03:44:45.405Z,80.15
2019-02-23T03:45:45.344Z,79.86
2019-02-23T03:46:45.286Z,79.86
2019-02-23T03:47:45.223Z,80.05
2019-02-23T03:48:45.165Z,80.15
2019-02-23T03:49:45.103Z,80.24
2019-02-23T03:50:49.101Z,79.58
2019-02-23T03:51:45.019Z,79.58
2019-02-23T03:52:44.925Z,79.49
2019-02-23T03:53:44.862Z,79.68
2019-02-23T03:54:44.801Z,79.39
2019-02-23T03:55:44.741Z,79.49
2019-02-23T03:56:44.683Z,79.20
2019-02-23T03:57:44.621Z,79.49
2019-02-23T03:58:44.561Z,79.39
2019-02-23T03:59:44.500Z,79.49
2019-02-23T04:00:44.439Z,79.39
2019-02-23T04:01:44.384Z,79.73
2019-02-23T04:02:44.319Z,79.68
2019-02-23T04:03:44.261Z,79.11
2019-02-23T04:04:44.198Z,79.39
2019-02-23T04:05:44.138Z,79.01
2019-02-23T04:06:44.077Z,79.49
2019-02-23T04:07:44.016Z,79.01
2019-02-23T04:08:43.956Z,78.63
2019-02-23T04:09:43.900Z,78.72
2019-02-23T04:10:43.835Z,79.01
2019-02-23T04:11:43.780Z,78.97
2019-02-23T04:12:43.740Z,78.50
2019-02-23T04:13:43.655Z,78.63
2019-02-23T04:14:43.617Z,78.72
2019-02-23T04:15:43.535Z,78.72
2019-02-23T04:16:43.473Z,78.63
2019-02-23T04:17:43.414Z,78.72
2019-02-23T04:18:43.354Z,79.01
2019-02-23T04:19:43.293Z,78.63
2019-02-23T04:20:43.231Z,78.69
2019-02-23T04:21:43.173Z,78.91
2019-02-23T04:22:43.110Z,79.01
2019-02-23T04:23:43.049Z,79.01
2019-02-23T04:24:43.099Z,78.91
2019-02-23T04:25:42.929Z,79.01
2019-02-23T04:26:42.870Z,79.11
2019-02-23T04:27:42.810Z,78.72
2019-02-23T04:28:42.748Z,78.69
2019-02-23T04:29:42.693Z,79.01
2019-02-23T04:30:42.630Z,78.82
2019-02-23T04:31:42.576Z,78.91
2019-02-23T04:32:42.509Z,78.88
2019-02-23T04:33:42.446Z,78.91
2019-02-23T04:34:42.385Z,78.78
2019-02-23T04:35:42.324Z,78.97
2019-02-23T04:36:42.265Z,78.97
2019-02-23T04:37:42.206Z,78.88
2019-02-23T04:38:42.142Z,78.78
2019-02-23T04:39:42.091Z,79.06
2019-02-23T04:40:42.027Z,78.91
2019-02-23T04:41:41.962Z,78.78
2019-02-23T04:42:41.901Z,78.97
2019-02-23T04:43:44.217Z,78.88
2019-02-23T04:44:41.782Z,78.59
2019-02-23T04:45:41.721Z,78.40
2019-02-23T04:46:41.661Z,78.50
2019-02-23T04:47:41.603Z,78.69
2019-02-23T04:48:41.539Z,78.59
2019-02-23T04:49:41.478Z,78.69
2019-02-23T04:50:41.419Z,78.69
2019-02-23T04:51:41.357Z,78.78
2019-02-23T04:52:41.297Z,78.78
2019-02-23T04:53:41.237Z,78.78
2019-02-23T04:54:41.206Z,78.88
2019-02-23T04:55:41.115Z,78.88
2019-02-23T04:56:41.058Z,78.97
2019-02-23T04:57:40.998Z,79.06
2019-02-23T04:58:40.933Z,78.88
2019-02-23T04:59:40.878Z,78.97
2019-02-23T05:00:40.821Z,78.78
2019-02-23T05:01:40.754Z,78.88
2019-02-23T05:02:40.692Z,78.78
2019-02-23T05:03:40.631Z,78.30
2019-02-23T05:04:40.573Z,78.30
2019-02-23T05:05:40.514Z,78.40
2019-02-23T05:06:40.450Z,78.69
2019-02-23T05:07:40.390Z,78.78
2019-02-23T05:08:40.334Z,78.40
2019-02-23T05:09:40.284Z,78.59
2019-02-23T05:10:40.209Z,78.40
2019-02-23T05:11:40.148Z,78.59
2019-02-23T05:12:40.093Z,78.30
2019-02-23T05:13:40.027Z,78.40
2019-02-23T05:14:39.966Z,78.59
2019-02-23T05:15:39.904Z,78.59
2019-02-23T05:16:39.846Z,78.40
2019-02-23T05:17:39.786Z,78.30
2019-02-23T05:18:39.724Z,78.69
2019-02-23T05:19:39.664Z,78.40
2019-02-23T05:20:39.641Z,78.21
2019-02-23T05:21:39.543Z,78.21
2019-02-23T05:22:39.482Z,78.11
2019-02-23T05:23:39.429Z,78.40
2019-02-23T05:24:39.362Z,78.21
2019-02-23T05:25:39.303Z,78.30
2019-02-23T05:26:39.240Z,78.40
2019-02-23T05:27:39.179Z,78.21
2019-02-23T05:28:39.120Z,77.83
2019-02-23T05:29:39.059Z,77.64
2019-02-23T05:30:38.996Z,77.36
2019-02-23T05:31:38.937Z,77.36
2019-02-23T05:32:38.877Z,77.83
2019-02-23T05:33:38.815Z,77.55
2019-02-23T05:34:38.755Z,78.11
2019-02-23T05:35:38.696Z,78.02
2019-02-23T05:36:38.636Z,78.21
2019-02-23T05:37:38.573Z,77.55
2019-02-23T05:38:38.523Z,78.11
2019-02-23T05:39:38.456Z,77.55
2019-02-23T05:40:38.418Z,77.64
2019-02-23T05:41:38.331Z,77.55
2019-02-23T05:42:38.270Z,77.92
2019-02-23T05:43:38.214Z,77.83
2019-02-23T05:44:38.148Z,78.02
2019-02-23T05:45:38.091Z,77.83
2019-02-23T05:46:38.027Z,77.64
2019-02-23T05:47:37.968Z,77.73
2019-02-23T05:48:37.906Z,77.73
2019-02-23T05:49:37.846Z,77.73
2019-02-23T05:50:37.786Z,77.55
2019-02-23T05:51:39.062Z,77.73
2019-02-23T05:52:37.664Z,77.64
2019-02-23T05:53:37.611Z,77.17
2019-02-23T05:54:37.542Z,77.36
2019-02-23T05:55:37.482Z,77.26
2019-02-23T05:56:37.421Z,77.64
2019-02-23T05:57:37.363Z,77.64
2019-02-23T05:58:37.300Z,77.64
2019-02-23T05:59:37.348Z,77.73
2019-02-23T06:00:37.183Z,77.83
2019-02-23T06:01:37.119Z,78.11
2019-02-23T06:02:37.059Z,77.83
2019-02-23T06:03:36.996Z,77.73
2019-02-23T06:04:36.939Z,77.73
2019-02-23T06:05:36.882Z,77.36
2019-02-23T06:06:36.817Z,77.36
2019-02-23T06:07:36.754Z,76.88
2019-02-23T06:08:36.694Z,77.26
2019-02-23T06:09:36.634Z,77.36
2019-02-23T06:10:36.572Z,77.17
2019-02-23T06:11:36.512Z,77.36
2019-02-23T06:12:36.451Z,76.97
2019-02-23T06:13:36.391Z,77.55
2019-02-23T06:14:36.335Z,77.55
2019-02-23T06:15:36.270Z,77.17
2019-02-23T06:16:36.212Z,77.07
2019-02-23T06:17:36.152Z,77.26
2019-02-23T06:18:36.088Z,77.26
2019-02-23T06:19:36.032Z,77.45
2019-02-23T06:20:35.967Z,77.26
2019-02-23T06:21:35.906Z,77.64
2019-02-23T06:22:35.845Z,77.64
2019-02-23T06:23:35.784Z,77.17
2019-02-23T06:24:35.725Z,77.45
2019-02-23T06:25:35.664Z,77.17
2019-02-23T06:26:35.602Z,77.45
2019-02-23T06:27:35.540Z,77.64
2019-02-23T06:28:35.483Z,77.64
2019-02-23T06:29:35.420Z,78.02
2019-02-23T06:30:35.362Z,77.92
2019-02-23T06:31:35.298Z,78.11
2019-02-23T06:32:35.237Z,77.92
2019-02-23T06:33:35.177Z,77.36
2019-02-23T06:34:35.116Z,77.17
2019-02-23T06:35:35.057Z,77.17
2019-02-23T06:36:34.998Z,77.17
2019-02-23T06:37:34.936Z,77.17
2019-02-23T06:38:34.872Z,77.36
2019-02-23T06:39:34.826Z,77.45
2019-02-23T06:40:34.758Z,77.45
2019-02-23T06:41:34.692Z,77.17
2019-02-23T06:42:34.631Z,77.64
2019-02-23T06:43:34.573Z,77.36
2019-02-23T06:44:34.510Z,77.36
2019-02-23T06:45:34.448Z,76.78
2019-02-23T06:46:34.391Z,76.97
2019-02-23T06:47:34.326Z,76.97
2019-02-23T06:48:34.266Z,77.17
2019-02-23T06:49:34.207Z,77.55
2019-02-23T06:50:34.147Z,77.45
2019-02-23T06:51:34.085Z,77.36
2019-02-23T06:52:34.024Z,76.88
2019-02-23T06:53:33.968Z,77.17
2019-02-23T06:54:33.904Z,77.36
2019-02-23T06:55:33.841Z,77.26
2019-02-23T06:56:33.781Z,76.88
2019-02-23T06:57:33.720Z,77.07
2019-02-23T06:58:33.658Z,76.97
2019-02-23T06:59:33.598Z,77.17
2019-02-23T07:00:33.538Z,76.97
2019-02-23T07:01:33.477Z,76.97
2019-02-23T07:02:33.415Z,77.07
2019-02-23T07:03:33.356Z,76.78
2019-02-23T07:04:33.297Z,76.40
2019-02-23T07:05:33.235Z,76.97
2019-02-23T07:06:33.175Z,76.40
2019-02-23T07:07:33.112Z,76.40
2019-02-23T07:08:33.051Z,76.59
2019-02-23T07:09:32.994Z,76.59
2019-02-23T07:10:32.935Z,76.31
2019-02-23T07:11:32.868Z,76.31
2019-02-23T07:12:32.813Z,76.21
2019-02-23T07:13:32.746Z,76.59
2019-02-23T07:14:32.688Z,76.50
2019-02-23T07:15:32.626Z,76.69
2019-02-23T07:16:32.564Z,76.59
2019-02-23T07:17:32.505Z,76.50
2019-02-23T07:18:32.443Z,76.50
2019-02-23T07:19:32.387Z,76.21
2019-02-23T07:20:43.469Z,76.21
2019-02-23T07:21:32.261Z,76.50
2019-02-23T07:22:33.758Z,76.12
2019-02-23T07:23:32.139Z,76.40
2019-02-23T07:24:32.078Z,76.21
2019-02-23T07:25:32.018Z,76.40
2019-02-23T07:26:31.957Z,76.78
2019-02-23T07:27:31.898Z,76.78
2019-02-23T07:28:31.838Z,77.07
2019-02-23T07:29:31.773Z,76.12
2019-02-23T07:30:31.714Z,76.31
2019-02-23T07:31:31.651Z,76.21
2019-02-23T07:32:31.594Z,76.12
2019-02-23T07:33:33.063Z,76.50
2019-02-23T07:34:31.542Z,76.59
2019-02-23T07:35:31.412Z,76.03
2019-02-23T07:36:31.349Z,76.50
2019-02-23T07:37:31.289Z,76.21
2019-02-23T07:38:31.226Z,76.31
2019-02-23T07:39:31.166Z,76.21
2019-02-23T07:40:31.105Z,76.59
2019-02-23T07:41:31.046Z,76.50
2019-02-23T07:42:30.983Z,76.69
2019-02-23T07:43:30.934Z,76.59
2019-02-23T07:44:30.863Z,76.50
2019-02-23T07:45:30.801Z,76.40
2019-02-23T07:46:30.740Z,76.59
2019-02-23T07:47:30.679Z,76.21
2019-02-23T07:48:30.623Z,76.59
2019-02-23T07:49:30.558Z,76.69
2019-02-23T07:50:30.499Z,76.50
2019-02-23T07:51:30.436Z,76.40
2019-02-23T07:52:30.375Z,76.31
2019-02-23T07:53:30.383Z,76.40
2019-02-23T07:54:30.254Z,76.31
2019-02-23T07:55:30.192Z,76.21
2019-02-23T07:56:30.131Z,76.40
2019-02-23T07:57:30.072Z,76.50
2019-02-23T07:58:30.010Z,76.50
2019-02-23T07:59:29.949Z,76.40
2019-02-23T08:00:29.889Z,76.40
2019-02-23T08:01:29.827Z,76.31
2019-02-23T08:02:29.766Z,76.03
2019-02-23T08:03:29.708Z,76.12
2019-02-23T08:04:29.645Z,75.55
2019-02-23T08:05:29.586Z,75.64
2019-02-23T08:06:29.522Z,75.55
2019-02-23T08:07:29.461Z,75.64
2019-02-23T08:08:29.403Z,75.93
2019-02-23T08:09:29.341Z,75.93
2019-02-23T08:10:29.280Z,75.55
2019-02-23T08:11:29.218Z,75.55
2019-02-23T08:12:29.159Z,75.64
2019-02-23T08:13:29.104Z,75.64
2019-02-23T08:14:29.035Z,75.74
2019-02-23T08:15:28.977Z,75.74
2019-02-23T08:16:28.913Z,76.03
2019-02-23T08:17:28.856Z,75.84
2019-02-23T08:18:28.794Z,75.93
2019-02-23T08:19:28.734Z,75.93
2019-02-23T08:20:28.671Z,76.03
2019-02-23T08:21:28.610Z,75.45
2019-02-23T08:22:37.041Z,75.55
2019-02-23T08:23:28.492Z,75.36
2019-02-23T08:24:28.427Z,75.55
2019-02-23T08:25:28.370Z,75.45
2019-02-23T08:26:28.305Z,75.55
2019-02-23T08:27:28.243Z,75.93
2019-02-23T08:28:28.190Z,75.55
2019-02-23T08:29:28.125Z,75.64
2019-02-23T08:30:28.062Z,75.45
2019-02-23T08:31:28.003Z,75.45
2019-02-23T08:32:27.941Z,75.36
2019-02-23T08:33:27.881Z,75.26
2019-02-23T08:34:27.820Z,75.36
2019-02-23T08:35:27.759Z,75.26
2019-02-23T08:36:27.697Z,75.36
2019-02-23T08:37:27.637Z,75.45
2019-02-23T08:38:27.650Z,75.45
2019-02-23T08:39:27.515Z,75.26
2019-02-23T08:40:27.453Z,75.36
2019-02-23T08:41:27.392Z,75.36
2019-02-23T08:42:27.332Z,75.26
2019-02-23T08:43:27.271Z,75.55
2019-02-23T08:44:27.212Z,75.64
2019-02-23T08:45:27.156Z,75.07
2019-02-23T08:46:27.089Z,74.79
2019-02-23T08:47:27.027Z,74.60
2019-02-23T08:48:26.983Z,74.88
2019-02-23T08:49:26.907Z,74.98
2019-02-23T08:50:26.844Z,75.36
2019-02-23T08:51:26.782Z,74.51
2019-02-23T08:52:26.725Z,74.22
2019-02-23T08:53:26.665Z,74.79
2019-02-23T08:54:26.605Z,74.69
2019-02-23T08:55:26.541Z,74.22
2019-02-23T08:56:26.478Z,74.12
2019-02-23T08:57:26.421Z,74.12
2019-02-23T08:58:26.357Z,74.03
2019-02-23T08:59:26.299Z,74.51
2019-02-23T09:00:26.236Z,74.79
2019-02-23T09:01:26.175Z,75.26
2019-02-23T09:02:26.113Z,74.98
2019-02-23T09:03:26.052Z,75.17
2019-02-23T09:04:25.992Z,75.26
2019-02-23T09:05:25.933Z,74.79
2019-02-23T09:06:25.870Z,74.60
2019-02-23T09:07:25.813Z,74.60
2019-02-23T09:08:25.751Z,74.51
2019-02-23T09:09:25.694Z,74.51
2019-02-23T09:10:25.633Z,74.51
2019-02-23T09:11:25.565Z,74.88
2019-02-23T09:12:25.506Z,74.98
2019-02-23T09:13:25.447Z,75.26
2019-02-23T09:14:25.383Z,74.98
2019-02-23T09:15:25.328Z,74.79
2019-02-23T09:16:25.265Z,74.79
2019-02-23T09:17:25.205Z,74.69
2019-02-23T09:18:25.139Z,74.79
2019-02-23T09:19:25.079Z,75.26
2019-02-23T09:20:29.034Z,74.51
2019-02-23T09:21:24.962Z,74.03
2019-02-23T09:22:24.896Z,74.41
2019-02-23T09:23:24.835Z,74.12
2019-02-23T09:24:24.775Z,73.93
2019-02-23T09:25:24.714Z,74.41
2019-02-23T09:26:24.654Z,74.22
2019-02-23T09:27:24.595Z,74.31
2019-02-23T09:28:24.530Z,74.12
2019-02-23T09:29:24.471Z,73.36
2019-02-23T09:30:24.408Z,73.36
2019-02-23T09:31:24.350Z,73.08
2019-02-23T09:32:24.294Z,72.89
2019-02-23T09:33:24.226Z,73.27
2019-02-23T09:34:24.165Z,73.46
2019-02-23T09:35:24.104Z,73.65
2019-02-23T09:36:24.045Z,73.65
2019-02-23T09:37:23.985Z,72.51
2019-02-23T09:38:23.922Z,72.79
2019-02-23T09:39:23.870Z,72.51
2019-02-23T09:40:23.799Z,72.70
2019-02-23T09:41:23.739Z,71.94
2019-02-23T09:42:23.682Z,72.60
2019-02-23T09:43:23.620Z,72.22
2019-02-23T09:44:23.559Z,71.75
2019-02-23T09:45:23.497Z,71.84
2019-02-23T09:46:23.435Z,71.94
2019-02-23T09:47:23.374Z,72.32
2019-02-23T09:48:23.320Z,71.75
2019-02-23T09:49:23.253Z,72.13
2019-02-23T09:50:23.195Z,71.27
2019-02-23T09:51:23.131Z,72.22
2019-02-23T09:52:23.070Z,72.03
2019-02-23T09:53:23.014Z,72.70
2019-02-23T09:54:22.949Z,72.51
2019-02-23T09:55:22.887Z,72.41
2019-02-23T09:56:22.826Z,72.70
2019-02-23T09:57:22.766Z,72.60
2019-02-23T09:58:22.705Z,72.13
2019-02-23T09:59:22.645Z,72.22
2019-02-23T10:00:22.584Z,71.75
2019-02-23T10:01:22.523Z,71.66
2019-02-23T10:02:22.462Z,71.75
2019-02-23T10:03:22.400Z,72.03
2019-02-23T10:04:22.339Z,71.27
2019-02-23T10:05:22.279Z,71.56
2019-02-23T10:06:22.217Z,70.99
2019-02-23T10:07:22.159Z,70.79
2019-02-23T10:08:22.100Z,70.89
2019-02-23T10:09:22.037Z,70.99
2019-02-23T10:10:21.975Z,71.27
2019-02-23T10:11:21.918Z,71.08
2019-02-23T10:12:21.852Z,70.89
2019-02-23T10:13:21.793Z,70.89
2019-02-23T10:14:21.731Z,71.27
2019-02-23T10:15:21.670Z,70.89
2019-02-23T10:16:21.609Z,70.99
2019-02-23T10:17:21.549Z,70.89
2019-02-23T10:18:21.487Z,70.23
2019-02-23T10:19:21.426Z,69.75
2019-02-23T10:20:21.366Z,70.04
2019-02-23T10:21:21.310Z,70.61
2019-02-23T10:22:21.246Z,70.51
2019-02-23T10:23:22.391Z,70.61
2019-02-23T10:24:21.124Z,70.32
2019-02-23T10:25:21.064Z,69.94
2019-02-23T10:26:21.000Z,69.66
2019-02-23T10:27:20.942Z,69.09
2019-02-23T10:28:20.880Z,69.46
2019-02-23T10:29:20.819Z,69.27
2019-02-23T10:30:20.759Z,69.09
2019-02-23T10:31:20.696Z,69.18
2019-02-23T10:32:20.635Z,68.99
2019-02-23T10:33:20.575Z,69.66
2019-02-23T10:34:20.514Z,70.04
2019-02-23T10:35:20.454Z,69.56
2019-02-23T10:36:20.393Z,70.13
2019-02-23T10:37:20.331Z,70.23
2019-02-23T10:38:20.271Z,69.66
2019-02-23T10:39:20.209Z,70.04
2019-02-23T10:40:20.153Z,70.13
2019-02-23T10:41:20.088Z,69.85
2019-02-23T10:42:20.027Z,70.42
2019-02-23T10:43:19.969Z,70.51
2019-02-23T10:44:19.906Z,70.70
2019-02-23T10:45:19.844Z,69.94
2019-02-23T10:46:19.783Z,69.75
2019-02-23T10:47:19.723Z,70.04
2019-02-23T10:48:19.667Z,69.75
2019-02-23T10:49:19.603Z,70.04
2019-02-23T10:50:19.540Z,70.51
2019-02-23T10:51:19.480Z,70.70
2019-02-23T10:52:19.421Z,70.89
2019-02-23T10:53:19.365Z,70.04
2019-02-23T10:54:19.297Z,68.99
2019-02-23T10:55:19.236Z,69.50
2019-02-23T10:56:19.175Z,69.09
2019-02-23T10:57:19.115Z,68.52
2019-02-23T10:58:19.054Z,68.74
2019-02-23T10:59:18.993Z,68.90
2019-02-23T11:00:18.931Z,68.90
2019-02-23T11:01:18.874Z,68.99
2019-02-23T11:02:18.812Z,69.02
2019-02-23T11:03:18.749Z,69.41
2019-02-23T11:04:18.690Z,69.60
2019-02-23T11:05:18.630Z,70.04
2019-02-23T11:06:18.567Z,70.04
2019-02-23T11:07:18.511Z,70.17
2019-02-23T11:08:18.447Z,70.17
2019-02-23T11:09:18.391Z,69.41
2019-02-23T11:10:18.324Z,69.12
2019-02-23T11:11:18.264Z,68.65
2019-02-23T11:12:18.203Z,68.74
2019-02-23T11:13:18.142Z,68.17
2019-02-23T11:14:18.082Z,68.84
2019-02-23T11:15:18.995Z,68.55
2019-02-23T11:16:17.959Z,68.74
2019-02-23T11:17:17.901Z,67.50
2019-02-23T11:18:17.838Z,67.57
2019-02-23T11:19:17.781Z,68.27
2019-02-23T11:20:17.717Z,68.74
2019-02-23T11:21:17.657Z,68.65
2019-02-23T11:22:17.594Z,68.84
2019-02-23T11:23:17.535Z,68.46
2019-02-23T11:24:18.426Z,68.84
2019-02-23T11:25:17.413Z,69.12
2019-02-23T11:26:17.352Z,69.12
2019-02-23T11:27:17.291Z,68.93
2019-02-23T11:28:17.231Z,68.74
2019-02-23T11:29:17.170Z,68.61
2019-02-23T11:30:17.109Z,67.60
2019-02-23T11:31:17.055Z,68.27
2019-02-23T11:32:16.987Z,68.07
2019-02-23T11:33:16.927Z,68.27
2019-02-23T11:34:16.870Z,68.74
2019-02-23T11:35:17.579Z,68.46
2019-02-23T11:36:16.746Z,67.32
2019-02-23T11:37:16.696Z,67.50
2019-02-23T11:38:16.629Z,67.69
2019-02-23T11:39:16.562Z,67.98
2019-02-23T11:40:16.504Z,67.79
2019-02-23T11:41:16.442Z,68.36
2019-02-23T11:42:16.380Z,68.55
2019-02-23T11:43:16.320Z,68.55
2019-02-23T11:44:16.260Z,68.84
2019-02-23T11:45:16.202Z,68.84
2019-02-23T11:46:16.139Z,68.65
2019-02-23T11:47:16.076Z,68.55
2019-02-23T11:48:16.019Z,67.98
2019-02-23T11:49:15.956Z,67.60
2019-02-23T11:50:15.896Z,68.46
2019-02-23T11:51:15.840Z,67.69
2019-02-23T11:52:15.773Z,67.50
2019-02-23T11:53:15.714Z,67.50
2019-02-23T11:54:15.651Z,67.32
2019-02-23T11:55:15.593Z,67.32
2019-02-23T11:56:15.530Z,67.41
2019-02-23T11:57:15.471Z,67.60
2019-02-23T11:58:15.409Z,67.79
2019-02-23T11:59:15.348Z,68.36
2019-02-23T12:00:15.288Z,67.03
2019-02-23T12:01:15.228Z,65.89
2019-02-23T12:02:15.166Z,65.60
2019-02-23T12:03:15.107Z,66.17
2019-02-23T12:04:15.051Z,66.17
2019-02-23T12:05:14.991Z,66.27
2019-02-23T12:06:14.923Z,65.32
2019-02-23T12:07:14.862Z,65.51
2019-02-23T12:08:14.808Z,65.99
2019-02-23T12:09:14.749Z,65.89
2019-02-23T12:10:14.681Z,65.89
2019-02-23T12:11:14.621Z,65.80
2019-02-23T12:12:14.563Z,65.32
2019-02-23T12:13:14.499Z,65.99
2019-02-23T12:14:14.436Z,65.32
2019-02-23T12:15:14.377Z,65.03
2019-02-23T12:16:14.318Z,65.89
2019-02-23T12:17:14.257Z,66.08
2019-02-23T12:18:14.201Z,65.89
2019-02-23T12:19:14.135Z,65.80
2019-02-23T12:20:14.074Z,65.13
2019-02-23T12:21:14.015Z,64.56
2019-02-23T12:22:13.954Z,65.13
2019-02-23T12:23:13.891Z,65.41
2019-02-23T12:24:13.832Z,65.51
2019-02-23T12:25:16.091Z,64.65
2019-02-23T12:26:13.713Z,65.03
2019-02-23T12:27:13.699Z,64.46
2019-02-23T12:28:13.589Z,64.37
2019-02-23T12:29:13.530Z,64.37
2019-02-23T12:30:13.467Z,63.89
2019-02-23T12:31:13.410Z,63.04
2019-02-23T12:32:13.347Z,63.13
2019-02-23T12:33:13.288Z,63.51
2019-02-23T12:34:13.224Z,63.04
2019-02-23T12:35:13.165Z,62.08
2019-02-23T12:36:13.110Z,62.85
2019-02-23T12:37:13.046Z,64.27
2019-02-23T12:38:12.983Z,64.37
2019-02-23T12:39:12.927Z,64.08
2019-02-23T12:40:12.864Z,64.46
2019-02-23T12:41:12.806Z,64.08
2019-02-23T12:42:12.743Z,63.04
2019-02-23T12:43:12.685Z,62.56
2019-02-23T12:44:12.624Z,63.42
2019-02-23T12:45:12.563Z,62.56
2019-02-23T12:46:12.499Z,63.04
2019-02-23T12:47:12.439Z,63.04
2019-02-23T12:48:12.383Z,63.13
2019-02-23T12:49:12.320Z,63.79
2019-02-23T12:50:12.259Z,63.89
2019-02-23T12:51:12.197Z,63.23
2019-02-23T12:52:12.137Z,62.27